sensor_id;sensor_type;location;lat;lon;timestamp;pressure;altitude;pressure_sealevel;temperature;humidity
52935;BME280;38802;50.198;19.796;2023-07-22T00:02:25;95724.47;;;15.89;87.26
52935;BME280;38802;50.198;19.796;2023-07-22T00:04:51;95725.56;;;15.92;87.21
52935;BME280;38802;50.198;19.796;2023-07-22T00:07:18;95727.56;;;15.94;87.03
52935;BME280;38802;50.198;19.796;2023-07-22T00:09:45;95735.73;;;15.98;86.81
52935;BME280;38802;50.198;19.796;2023-07-22T00:12:12;95740.04;;;16.02;86.63
52935;BME280;38802;50.198;19.796;2023-07-22T00:14:41;95744.16;;;16.04;86.45
52935;BME280;38802;50.198;19.796;2023-07-22T00:17:08;95743.14;;;16.06;86.47
52935;BME280;38802;50.198;19.796;2023-07-22T00:19:35;95739.64;;;16.07;86.47
52935;BME280;38802;50.198;19.796;2023-07-22T00:22:02;95735.62;;;16.10;86.40
52935;BME280;38802;50.198;19.796;2023-07-22T00:24:28;95732.17;;;16.14;86.39
52935;BME280;38802;50.198;19.796;2023-07-22T00:26:55;95738.52;;;16.18;86.42
52935;BME280;38802;50.198;19.796;2023-07-22T00:29:22;95742.60;;;16.20;86.31
52935;BME280;38802;50.198;19.796;2023-07-22T00:31:49;95737.19;;;16.18;86.30
52935;BME280;38802;50.198;19.796;2023-07-22T00:34:16;95727.09;;;16.14;86.35
52935;BME280;38802;50.198;19.796;2023-07-22T00:36:43;95722.08;;;16.17;86.70
52935;BME280;38802;50.198;19.796;2023-07-22T00:39:10;95720.95;;;16.17;87.20
52935;BME280;38802;50.198;19.796;2023-07-22T00:41:41;95719.92;;;16.10;87.02
52935;BME280;38802;50.198;19.796;2023-07-22T00:44:11;95720.08;;;16.05;86.67
52935;BME280;38802;50.198;19.796;2023-07-22T00:46:39;95717.06;;;16.05;86.74
52935;BME280;38802;50.198;19.796;2023-07-22T00:49:07;95713.30;;;16.08;86.74
52935;BME280;38802;50.198;19.796;2023-07-22T00:51:34;95711.14;;;16.11;86.82
52935;BME280;38802;50.198;19.796;2023-07-22T00:54:01;95706.67;;;16.15;86.72
52935;BME280;38802;50.198;19.796;2023-07-22T00:56:33;95705.88;;;16.19;86.77
52935;BME280;38802;50.198;19.796;2023-07-22T00:59:02;95704.09;;;16.24;86.66
52935;BME280;38802;50.198;19.796;2023-07-22T01:01:29;95696.57;;;16.24;86.72
52935;BME280;38802;50.198;19.796;2023-07-22T01:03:55;95696.50;;;16.24;86.64
52935;BME280;38802;50.198;19.796;2023-07-22T01:06:23;95695.89;;;16.22;86.46
52935;BME280;38802;50.198;19.796;2023-07-22T01:08:51;95692.48;;;16.21;86.59
52935;BME280;38802;50.198;19.796;2023-07-22T01:11:18;95687.26;;;16.21;86.64
52935;BME280;38802;50.198;19.796;2023-07-22T01:13:45;95684.16;;;16.25;86.67
52935;BME280;38802;50.198;19.796;2023-07-22T01:16:12;95682.89;;;16.28;86.77
52935;BME280;38802;50.198;19.796;2023-07-22T01:18:40;95683.02;;;16.28;86.61
52935;BME280;38802;50.198;19.796;2023-07-22T01:21:08;95682.36;;;16.25;86.29
52935;BME280;38802;50.198;19.796;2023-07-22T01:23:36;95681.80;;;16.24;86.40
52935;BME280;38802;50.198;19.796;2023-07-22T01:26:03;95676.85;;;16.20;86.26
52935;BME280;38802;50.198;19.796;2023-07-22T01:28:30;95678.73;;;16.19;86.46
52935;BME280;38802;50.198;19.796;2023-07-22T01:30:56;95684.20;;;16.17;86.26
52935;BME280;38802;50.198;19.796;2023-07-22T01:33:24;95688.64;;;16.15;86.35
52935;BME280;38802;50.198;19.796;2023-07-22T01:35:50;95685.96;;;16.12;86.18
52935;BME280;38802;50.198;19.796;2023-07-22T01:38:18;95680.98;;;16.14;86.39
52935;BME280;38802;50.198;19.796;2023-07-22T01:40:45;95682.29;;;16.17;86.43
52935;BME280;38802;50.198;19.796;2023-07-22T01:43:12;95684.98;;;16.16;86.38
52935;BME280;38802;50.198;19.796;2023-07-22T01:45:39;95683.97;;;16.14;86.43
52935;BME280;38802;50.198;19.796;2023-07-22T01:48:06;95684.09;;;16.12;86.45
52935;BME280;38802;50.198;19.796;2023-07-22T01:50:32;95694.77;;;16.09;86.51
52935;BME280;38802;50.198;19.796;2023-07-22T01:53:00;95692.73;;;16.08;86.52
52935;BME280;38802;50.198;19.796;2023-07-22T01:55:26;95692.50;;;16.09;86.69
52935;BME280;38802;50.198;19.796;2023-07-22T01:57:54;95700.61;;;16.09;86.65
52935;BME280;38802;50.198;19.796;2023-07-22T02:00:21;95705.28;;;16.07;86.66
52935;BME280;38802;50.198;19.796;2023-07-22T02:02:48;95706.23;;;16.05;86.69
52935;BME280;38802;50.198;19.796;2023-07-22T02:05:15;95702.30;;;16.04;86.84
52935;BME280;38802;50.198;19.796;2023-07-22T02:07:42;95705.74;;;16.03;86.98
52935;BME280;38802;50.198;19.796;2023-07-22T02:10:09;95708.48;;;16.03;86.91
52935;BME280;38802;50.198;19.796;2023-07-22T02:12:38;95709.89;;;16.07;87.38
52935;BME280;38802;50.198;19.796;2023-07-22T02:15:07;95709.67;;;16.09;87.24
52935;BME280;38802;50.198;19.796;2023-07-22T02:17:36;95709.53;;;16.10;87.47
52935;BME280;38802;50.198;19.796;2023-07-22T02:20:03;95707.30;;;16.11;87.42
52935;BME280;38802;50.198;19.796;2023-07-22T02:22:31;95709.84;;;16.11;87.54
52935;BME280;38802;50.198;19.796;2023-07-22T02:24:58;95710.45;;;16.10;87.33
52935;BME280;38802;50.198;19.796;2023-07-22T02:27:24;95709.02;;;16.09;87.50
52935;BME280;38802;50.198;19.796;2023-07-22T02:29:51;95708.36;;;16.10;87.72
52935;BME280;38802;50.198;19.796;2023-07-22T02:32:18;95708.27;;;16.09;87.65
52935;BME280;38802;50.198;19.796;2023-07-22T02:34:45;95710.05;;;16.05;87.68
52935;BME280;38802;50.198;19.796;2023-07-22T02:37:12;95710.60;;;16.03;87.75
52935;BME280;38802;50.198;19.796;2023-07-22T02:39:38;95714.80;;;16.03;87.80
52935;BME280;38802;50.198;19.796;2023-07-22T02:42:06;95715.67;;;16.00;87.84
52935;BME280;38802;50.198;19.796;2023-07-22T02:44:33;95716.08;;;15.98;87.94
52935;BME280;38802;50.198;19.796;2023-07-22T02:47:00;95719.56;;;15.97;87.79
52935;BME280;38802;50.198;19.796;2023-07-22T02:49:26;95725.27;;;15.95;87.82
52935;BME280;38802;50.198;19.796;2023-07-22T02:51:53;95728.13;;;15.94;88.19
52935;BME280;38802;50.198;19.796;2023-07-22T02:54:20;95727.27;;;15.95;88.12
52935;BME280;38802;50.198;19.796;2023-07-22T02:56:46;95724.71;;;15.98;88.25
52935;BME280;38802;50.198;19.796;2023-07-22T02:59:13;95724.95;;;15.99;88.44
52935;BME280;38802;50.198;19.796;2023-07-22T03:01:40;95732.73;;;15.98;88.46
52935;BME280;38802;50.198;19.796;2023-07-22T03:04:07;95736.67;;;15.97;88.44
52935;BME280;38802;50.198;19.796;2023-07-22T03:06:33;95738.55;;;15.96;88.53
52935;BME280;38802;50.198;19.796;2023-07-22T03:09:00;95739.86;;;15.92;88.61
52935;BME280;38802;50.198;19.796;2023-07-22T03:11:27;95740.53;;;15.88;88.66
52935;BME280;38802;50.198;19.796;2023-07-22T03:13:54;95743.02;;;15.85;88.90
52935;BME280;38802;50.198;19.796;2023-07-22T03:16:20;95746.12;;;15.80;89.11
52935;BME280;38802;50.198;19.796;2023-07-22T03:18:47;95745.86;;;15.80;89.21
52935;BME280;38802;50.198;19.796;2023-07-22T03:21:14;95748.81;;;15.80;89.54
52935;BME280;38802;50.198;19.796;2023-07-22T03:23:41;95751.41;;;15.79;89.51
52935;BME280;38802;50.198;19.796;2023-07-22T03:26:07;95753.05;;;15.78;89.75
52935;BME280;38802;50.198;19.796;2023-07-22T03:28:34;95756.11;;;15.77;89.74
52935;BME280;38802;50.198;19.796;2023-07-22T03:31:01;95755.52;;;15.76;90.02
52935;BME280;38802;50.198;19.796;2023-07-22T03:33:28;95761.27;;;15.75;90.29
52935;BME280;38802;50.198;19.796;2023-07-22T03:35:55;95764.30;;;15.75;90.36
52935;BME280;38802;50.198;19.796;2023-07-22T03:38:22;95760.22;;;15.75;90.59
52935;BME280;38802;50.198;19.796;2023-07-22T03:40:48;95762.07;;;15.74;90.99
52935;BME280;38802;50.198;19.796;2023-07-22T03:43:15;95762.05;;;15.71;91.08
52935;BME280;38802;50.198;19.796;2023-07-22T03:45:42;95768.61;;;15.70;91.41
52935;BME280;38802;50.198;19.796;2023-07-22T03:48:09;95765.23;;;15.69;91.34
52935;BME280;38802;50.198;19.796;2023-07-22T03:50:36;95762.85;;;15.67;91.17
52935;BME280;38802;50.198;19.796;2023-07-22T03:53:03;95765.41;;;15.68;91.41
52935;BME280;38802;50.198;19.796;2023-07-22T03:55:29;95765.96;;;15.69;92.16
52935;BME280;38802;50.198;19.796;2023-07-22T03:57:56;95767.23;;;15.65;91.67
52935;BME280;38802;50.198;19.796;2023-07-22T04:00:23;95769.95;;;15.66;91.99
52935;BME280;38802;50.198;19.796;2023-07-22T04:02:50;95766.79;;;15.68;92.69
52935;BME280;38802;50.198;19.796;2023-07-22T04:05:17;95770.41;;;15.65;93.15
52935;BME280;38802;50.198;19.796;2023-07-22T04:07:44;95772.11;;;15.61;92.68
52935;BME280;38802;50.198;19.796;2023-07-22T04:10:11;95774.52;;;15.61;92.96
52935;BME280;38802;50.198;19.796;2023-07-22T04:12:39;95775.20;;;15.60;92.95
52935;BME280;38802;50.198;19.796;2023-07-22T04:15:09;95773.80;;;15.58;92.68
52935;BME280;38802;50.198;19.796;2023-07-22T04:17:36;95773.35;;;15.59;92.66
52935;BME280;38802;50.198;19.796;2023-07-22T04:20:03;95772.77;;;15.60;92.79
52935;BME280;38802;50.198;19.796;2023-07-22T04:22:30;95775.71;;;15.60;92.60
52935;BME280;38802;50.198;19.796;2023-07-22T04:24:58;95772.66;;;15.60;92.74
52935;BME280;38802;50.198;19.796;2023-07-22T04:27:27;95775.08;;;15.63;93.20
52935;BME280;38802;50.198;19.796;2023-07-22T04:29:53;95781.38;;;15.62;92.97
52935;BME280;38802;50.198;19.796;2023-07-22T04:32:20;95786.53;;;15.65;93.30
52935;BME280;38802;50.198;19.796;2023-07-22T04:34:47;95791.55;;;15.65;93.34
52935;BME280;38802;50.198;19.796;2023-07-22T04:37:13;95795.73;;;15.68;93.76
52935;BME280;38802;50.198;19.796;2023-07-22T04:39:40;95801.33;;;15.67;94.10
52935;BME280;38802;50.198;19.796;2023-07-22T04:42:07;95799.56;;;15.66;93.94
52935;BME280;38802;50.198;19.796;2023-07-22T04:44:33;95804.09;;;15.66;93.76
52935;BME280;38802;50.198;19.796;2023-07-22T04:47:00;95805.53;;;15.69;93.93
52935;BME280;38802;50.198;19.796;2023-07-22T04:49:27;95801.65;;;15.69;93.83
52935;BME280;38802;50.198;19.796;2023-07-22T04:51:54;95796.86;;;15.70;93.90
52935;BME280;38802;50.198;19.796;2023-07-22T04:54:20;95796.52;;;15.73;93.86
52935;BME280;38802;50.198;19.796;2023-07-22T04:56:47;95804.02;;;15.75;93.74
52935;BME280;38802;50.198;19.796;2023-07-22T04:59:14;95804.46;;;15.76;94.02
52935;BME280;38802;50.198;19.796;2023-07-22T05:01:41;95802.02;;;15.76;94.03
52935;BME280;38802;50.198;19.796;2023-07-22T05:04:10;95807.71;;;15.75;94.00
52935;BME280;38802;50.198;19.796;2023-07-22T05:06:36;95811.52;;;15.75;94.09
52935;BME280;38802;50.198;19.796;2023-07-22T05:09:03;95812.27;;;15.76;94.03
52935;BME280;38802;50.198;19.796;2023-07-22T05:11:30;95820.91;;;15.77;94.19
52935;BME280;38802;50.198;19.796;2023-07-22T05:13:56;95824.75;;;15.78;94.15
52935;BME280;38802;50.198;19.796;2023-07-22T05:16:23;95829.41;;;15.78;94.30
52935;BME280;38802;50.198;19.796;2023-07-22T05:18:50;95828.75;;;15.78;94.29
52935;BME280;38802;50.198;19.796;2023-07-22T05:21:17;95830.30;;;15.78;94.22
52935;BME280;38802;50.198;19.796;2023-07-22T05:23:43;95830.19;;;15.79;93.95
52935;BME280;38802;50.198;19.796;2023-07-22T05:26:10;95833.80;;;15.81;93.99
52935;BME280;38802;50.198;19.796;2023-07-22T05:28:37;95840.55;;;15.85;94.07
52935;BME280;38802;50.198;19.796;2023-07-22T05:31:03;95846.63;;;15.89;93.91
52935;BME280;38802;50.198;19.796;2023-07-22T05:33:30;95843.77;;;15.89;94.06
52935;BME280;38802;50.198;19.796;2023-07-22T05:35:57;95850.40;;;15.88;93.92
52935;BME280;38802;50.198;19.796;2023-07-22T05:38:24;95852.30;;;15.88;93.85
52935;BME280;38802;50.198;19.796;2023-07-22T05:40:52;95854.11;;;15.89;93.85
52935;BME280;38802;50.198;19.796;2023-07-22T05:43:20;95861.72;;;15.91;93.99
52935;BME280;38802;50.198;19.796;2023-07-22T05:45:47;95861.42;;;15.91;93.84
52935;BME280;38802;50.198;19.796;2023-07-22T05:48:14;95862.17;;;15.94;93.97
52935;BME280;38802;50.198;19.796;2023-07-22T05:50:40;95867.03;;;15.96;93.97
52935;BME280;38802;50.198;19.796;2023-07-22T05:53:07;95867.59;;;15.95;93.87
52935;BME280;38802;50.198;19.796;2023-07-22T05:55:34;95867.23;;;15.95;93.79
52935;BME280;38802;50.198;19.796;2023-07-22T05:58:02;95861.29;;;15.94;93.72
52935;BME280;38802;50.198;19.796;2023-07-22T06:00:34;95857.33;;;15.88;93.57
52935;BME280;38802;50.198;19.796;2023-07-22T06:03:02;95863.35;;;15.85;93.53
52935;BME280;38802;50.198;19.796;2023-07-22T06:05:29;95863.63;;;15.81;93.39
52935;BME280;38802;50.198;19.796;2023-07-22T06:07:56;95868.02;;;15.79;93.49
52935;BME280;38802;50.198;19.796;2023-07-22T06:10:23;95869.91;;;15.75;93.59
52935;BME280;38802;50.198;19.796;2023-07-22T06:12:50;95865.21;;;15.73;93.64
52935;BME280;38802;50.198;19.796;2023-07-22T06:15:17;95865.52;;;15.73;93.78
52935;BME280;38802;50.198;19.796;2023-07-22T06:17:44;95870.20;;;15.75;93.90
52935;BME280;38802;50.198;19.796;2023-07-22T06:20:10;95870.05;;;15.79;93.94
52935;BME280;38802;50.198;19.796;2023-07-22T06:22:37;95871.49;;;15.86;94.04
52935;BME280;38802;50.198;19.796;2023-07-22T06:25:05;95875.11;;;15.92;94.18
52935;BME280;38802;50.198;19.796;2023-07-22T06:27:33;95877.46;;;15.99;94.28
52935;BME280;38802;50.198;19.796;2023-07-22T06:30:00;95881.44;;;16.00;93.96
52935;BME280;38802;50.198;19.796;2023-07-22T06:32:27;95881.80;;;16.01;93.99
52935;BME280;38802;50.198;19.796;2023-07-22T06:34:57;95884.52;;;16.04;93.93
52935;BME280;38802;50.198;19.796;2023-07-22T06:37:23;95884.56;;;16.10;93.89
52935;BME280;38802;50.198;19.796;2023-07-22T06:39:51;95891.75;;;16.23;93.89
52935;BME280;38802;50.198;19.796;2023-07-22T06:42:18;95893.02;;;16.35;93.77
52935;BME280;38802;50.198;19.796;2023-07-22T06:44:44;95890.80;;;16.50;93.72
52935;BME280;38802;50.198;19.796;2023-07-22T06:47:11;95894.42;;;16.70;93.49
52935;BME280;38802;50.198;19.796;2023-07-22T06:49:39;95892.48;;;16.84;93.56
52935;BME280;38802;50.198;19.796;2023-07-22T06:52:06;95891.28;;;16.96;92.84
52935;BME280;38802;50.198;19.796;2023-07-22T06:54:33;95893.82;;;17.05;92.48
52935;BME280;38802;50.198;19.796;2023-07-22T06:57:00;95894.27;;;17.17;92.33
52935;BME280;38802;50.198;19.796;2023-07-22T06:59:27;95898.94;;;17.30;91.64
52935;BME280;38802;50.198;19.796;2023-07-22T07:01:54;95894.92;;;17.46;91.30
52935;BME280;38802;50.198;19.796;2023-07-22T07:04:21;95895.66;;;17.65;90.62
52935;BME280;38802;50.198;19.796;2023-07-22T07:06:49;95896.16;;;17.76;90.70
52935;BME280;38802;50.198;19.796;2023-07-22T07:09:16;95899.20;;;17.99;89.84
52935;BME280;38802;50.198;19.796;2023-07-22T07:11:44;95902.55;;;18.25;88.58
52935;BME280;38802;50.198;19.796;2023-07-22T07:14:12;95902.98;;;18.49;87.85
52935;BME280;38802;50.198;19.796;2023-07-22T07:16:39;95903.56;;;18.63;85.76
52935;BME280;38802;50.198;19.796;2023-07-22T07:19:06;95901.59;;;18.76;85.21
52935;BME280;38802;50.198;19.796;2023-07-22T07:21:35;95905.23;;;18.93;84.98
52935;BME280;38802;50.198;19.796;2023-07-22T07:24:02;95910.64;;;19.09;84.82
52935;BME280;38802;50.198;19.796;2023-07-22T07:26:29;95916.23;;;19.23;83.13
52935;BME280;38802;50.198;19.796;2023-07-22T07:28:56;95923.52;;;19.37;82.78
52935;BME280;38802;50.198;19.796;2023-07-22T07:31:22;95923.48;;;19.55;81.99
52935;BME280;38802;50.198;19.796;2023-07-22T07:33:49;95919.98;;;19.70;80.95
52935;BME280;38802;50.198;19.796;2023-07-22T07:36:16;95921.59;;;19.78;78.93
52935;BME280;38802;50.198;19.796;2023-07-22T07:38:43;95920.54;;;19.93;79.46
52935;BME280;38802;50.198;19.796;2023-07-22T07:41:10;95923.92;;;20.09;77.19
52935;BME280;38802;50.198;19.796;2023-07-22T07:43:41;95921.29;;;20.04;76.92
52935;BME280;38802;50.198;19.796;2023-07-22T07:48:45;95936.45;;;19.81;76.97
52935;BME280;38802;50.198;19.796;2023-07-22T07:51:14;95940.26;;;19.83;76.44
52935;BME280;38802;50.198;19.796;2023-07-22T07:53:41;95942.53;;;20.00;76.18
52935;BME280;38802;50.198;19.796;2023-07-22T07:56:08;95945.80;;;20.24;74.73
52935;BME280;38802;50.198;19.796;2023-07-22T07:58:35;95947.60;;;20.44;74.28
52935;BME280;38802;50.198;19.796;2023-07-22T08:01:03;95949.27;;;20.62;74.60
52935;BME280;38802;50.198;19.796;2023-07-22T08:03:31;95953.27;;;20.80;74.79
52935;BME280;38802;50.198;19.796;2023-07-22T08:05:59;95959.73;;;20.80;72.55
52935;BME280;38802;50.198;19.796;2023-07-22T08:08:25;95964.36;;;20.75;73.29
52935;BME280;38802;50.198;19.796;2023-07-22T08:13:26;95966.36;;;20.90;71.99
52935;BME280;38802;50.198;19.796;2023-07-22T08:15:53;95969.08;;;21.06;72.12
52935;BME280;38802;50.198;19.796;2023-07-22T08:18:20;95971.78;;;21.23;71.28
52935;BME280;38802;50.198;19.796;2023-07-22T08:20:47;95968.83;;;21.32;71.11
52935;BME280;38802;50.198;19.796;2023-07-22T08:23:14;95973.84;;;21.21;70.07
52935;BME280;38802;50.198;19.796;2023-07-22T08:25:40;95976.67;;;20.91;68.94
52935;BME280;38802;50.198;19.796;2023-07-22T08:28:08;95979.38;;;20.80;69.49
52935;BME280;38802;50.198;19.796;2023-07-22T08:30:35;95983.71;;;20.76;70.14
52935;BME280;38802;50.198;19.796;2023-07-22T08:33:02;95987.89;;;20.85;70.39
52935;BME280;38802;50.198;19.796;2023-07-22T08:35:29;95988.92;;;20.88;69.80
52935;BME280;38802;50.198;19.796;2023-07-22T08:37:56;95994.06;;;20.94;69.34
52935;BME280;38802;50.198;19.796;2023-07-22T08:40:23;95997.83;;;21.08;69.26
52935;BME280;38802;50.198;19.796;2023-07-22T08:42:50;96000.77;;;21.18;68.76
52935;BME280;38802;50.198;19.796;2023-07-22T08:45:17;96000.73;;;21.19;68.46
52935;BME280;38802;50.198;19.796;2023-07-22T08:47:46;96004.46;;;21.16;67.92
52935;BME280;38802;50.198;19.796;2023-07-22T08:50:20;96006.85;;;21.03;67.67
52935;BME280;38802;50.198;19.796;2023-07-22T08:52:47;96019.27;;;20.81;66.76
52935;BME280;38802;50.198;19.796;2023-07-22T08:55:14;96022.29;;;20.56;66.38
52935;BME280;38802;50.198;19.796;2023-07-22T08:57:41;96024.61;;;20.40;66.46
52935;BME280;38802;50.198;19.796;2023-07-22T09:00:09;96024.39;;;20.59;66.26
52935;BME280;38802;50.198;19.796;2023-07-22T09:02:36;96025.57;;;20.77;65.83
52935;BME280;38802;50.198;19.796;2023-07-22T09:05:05;96025.55;;;21.04;65.39
52935;BME280;38802;50.198;19.796;2023-07-22T09:07:32;96028.80;;;20.99;64.71
52935;BME280;38802;50.198;19.796;2023-07-22T09:10:00;96030.11;;;20.85;65.47
52935;BME280;38802;50.198;19.796;2023-07-22T09:12:26;96031.77;;;20.72;65.36
52935;BME280;38802;50.198;19.796;2023-07-22T09:14:53;96040.05;;;20.61;65.41
52935;BME280;38802;50.198;19.796;2023-07-22T09:17:20;96042.70;;;20.52;65.36
52935;BME280;38802;50.198;19.796;2023-07-22T09:19:52;96039.18;;;20.48;64.94
52935;BME280;38802;50.198;19.796;2023-07-22T09:22:24;96041.02;;;20.50;65.19
52935;BME280;38802;50.198;19.796;2023-07-22T09:25:19;96046.42;;;20.44;64.37
52935;BME280;38802;50.198;19.796;2023-07-22T09:27:47;96055.20;;;20.31;64.79
52935;BME280;38802;50.198;19.796;2023-07-22T09:32:49;96051.40;;;20.44;64.46
52935;BME280;38802;50.198;19.796;2023-07-22T09:35:17;96046.70;;;20.64;63.64
52935;BME280;38802;50.198;19.796;2023-07-22T09:37:45;96048.55;;;20.79;63.40
52935;BME280;38802;50.198;19.796;2023-07-22T09:43:03;96053.02;;;20.92;63.53
52935;BME280;38802;50.198;19.796;2023-07-22T09:45:31;96056.95;;;21.14;63.33
52935;BME280;38802;50.198;19.796;2023-07-22T09:47:59;96051.24;;;21.27;62.64
52935;BME280;38802;50.198;19.796;2023-07-22T09:50:26;96045.81;;;21.44;62.76
52935;BME280;38802;50.198;19.796;2023-07-22T09:52:55;96048.85;;;21.62;62.67
52935;BME280;38802;50.198;19.796;2023-07-22T09:55:24;96040.71;;;21.83;62.49
52935;BME280;38802;50.198;19.796;2023-07-22T09:58:02;96049.23;;;21.99;62.42
52935;BME280;38802;50.198;19.796;2023-07-22T10:00:30;96047.19;;;22.16;62.09
52935;BME280;38802;50.198;19.796;2023-07-22T10:02:59;96045.73;;;22.31;61.88
52935;BME280;38802;50.198;19.796;2023-07-22T10:05:28;96046.98;;;22.47;61.94
52935;BME280;38802;50.198;19.796;2023-07-22T10:07:58;96048.25;;;22.52;61.52
52935;BME280;38802;50.198;19.796;2023-07-22T10:10:28;96044.20;;;22.39;60.57
52935;BME280;38802;50.198;19.796;2023-07-22T10:12:57;96043.66;;;22.15;60.36
52935;BME280;38802;50.198;19.796;2023-07-22T10:15:29;96047.17;;;22.03;60.31
52935;BME280;38802;50.198;19.796;2023-07-22T10:17:57;96047.83;;;22.02;60.01
52935;BME280;38802;50.198;19.796;2023-07-22T10:20:26;96047.06;;;22.04;60.37
52935;BME280;38802;50.198;19.796;2023-07-22T10:22:52;96051.52;;;22.09;61.06
52935;BME280;38802;50.198;19.796;2023-07-22T10:25:21;96048.30;;;22.15;61.16
52935;BME280;38802;50.198;19.796;2023-07-22T10:27:49;96045.17;;;22.05;61.08
52935;BME280;38802;50.198;19.796;2023-07-22T10:30:17;96049.83;;;21.89;60.77
52935;BME280;38802;50.198;19.796;2023-07-22T10:32:48;96056.48;;;21.88;60.90
52935;BME280;38802;50.198;19.796;2023-07-22T10:35:34;96055.20;;;22.01;60.39
52935;BME280;38802;50.198;19.796;2023-07-22T10:38:08;96052.69;;;22.13;60.14
52935;BME280;38802;50.198;19.796;2023-07-22T10:40:54;96054.79;;;22.25;59.40
52935;BME280;38802;50.198;19.796;2023-07-22T10:43:32;96054.95;;;22.34;59.72
52935;BME280;38802;50.198;19.796;2023-07-22T10:46:10;96050.88;;;22.42;59.96
52935;BME280;38802;50.198;19.796;2023-07-22T10:48:40;96052.23;;;22.45;59.31
52935;BME280;38802;50.198;19.796;2023-07-22T10:51:12;96054.27;;;22.53;58.96
52935;BME280;38802;50.198;19.796;2023-07-22T10:53:42;96053.17;;;22.60;58.80
52935;BME280;38802;50.198;19.796;2023-07-22T11:14:48;96052.54;;;23.07;56.77
52935;BME280;38802;50.198;19.796;2023-07-22T11:17:17;96054.70;;;23.07;56.59
52935;BME280;38802;50.198;19.796;2023-07-22T11:19:44;96059.11;;;23.08;56.29
52935;BME280;38802;50.198;19.796;2023-07-22T11:22:11;96063.00;;;23.08;55.66
52935;BME280;38802;50.198;19.796;2023-07-22T11:24:38;96060.92;;;23.05;55.73
52935;BME280;38802;50.198;19.796;2023-07-22T11:27:07;96059.32;;;23.02;55.04
52935;BME280;38802;50.198;19.796;2023-07-22T11:29:35;96053.64;;;22.99;54.46
52935;BME280;38802;50.198;19.796;2023-07-22T11:32:03;96061.73;;;22.97;54.69
52935;BME280;38802;50.198;19.796;2023-07-22T11:34:32;96057.33;;;22.93;55.00
52935;BME280;38802;50.198;19.796;2023-07-22T11:36:59;96058.68;;;22.89;53.70
52935;BME280;38802;50.198;19.796;2023-07-22T11:39:26;96060.15;;;22.70;54.08
52935;BME280;38802;50.198;19.796;2023-07-22T11:41:53;96059.79;;;22.60;54.60
52935;BME280;38802;50.198;19.796;2023-07-22T11:44:22;96060.02;;;22.46;54.74
52935;BME280;38802;50.198;19.796;2023-07-22T11:46:52;96057.77;;;22.34;55.15
52935;BME280;38802;50.198;19.796;2023-07-22T11:49:30;96057.77;;;22.26;55.36
52935;BME280;38802;50.198;19.796;2023-07-22T11:52:00;96060.05;;;22.15;55.20
52935;BME280;38802;50.198;19.796;2023-07-22T11:54:29;96060.14;;;22.08;55.56
52935;BME280;38802;50.198;19.796;2023-07-22T11:56:56;96058.46;;;22.07;55.64
52935;BME280;38802;50.198;19.796;2023-07-22T11:59:37;96061.59;;;22.14;55.96
52935;BME280;38802;50.198;19.796;2023-07-22T12:02:04;96060.18;;;22.32;56.21
52935;BME280;38802;50.198;19.796;2023-07-22T12:04:33;96060.23;;;22.44;55.99
52935;BME280;38802;50.198;19.796;2023-07-22T12:07:03;96056.35;;;22.53;56.19
52935;BME280;38802;50.198;19.796;2023-07-22T12:09:31;96055.65;;;22.72;56.47
52935;BME280;38802;50.198;19.796;2023-07-22T12:11:59;96056.80;;;22.91;56.63
52935;BME280;38802;50.198;19.796;2023-07-22T12:14:34;96054.88;;;23.05;55.33
52935;BME280;38802;50.198;19.796;2023-07-22T12:17:08;96052.04;;;23.07;55.05
52935;BME280;38802;50.198;19.796;2023-07-22T12:19:36;96048.73;;;23.08;55.37
52935;BME280;38802;50.198;19.796;2023-07-22T12:22:03;96049.34;;;23.20;55.60
52935;BME280;38802;50.198;19.796;2023-07-22T12:24:30;96046.70;;;23.28;55.09
52935;BME280;38802;50.198;19.796;2023-07-22T12:26:56;96045.83;;;23.20;55.38
52935;BME280;38802;50.198;19.796;2023-07-22T12:29:23;96045.71;;;23.07;55.27
52935;BME280;38802;50.198;19.796;2023-07-22T12:31:50;96038.84;;;22.94;54.57
52935;BME280;38802;50.198;19.796;2023-07-22T12:41:33;96036.45;;;22.87;54.89
52935;BME280;38802;50.198;19.796;2023-07-22T12:44:01;96039.06;;;22.83;53.87
52935;BME280;38802;50.198;19.796;2023-07-22T12:46:30;96038.62;;;22.67;53.75
52935;BME280;38802;50.198;19.796;2023-07-22T12:48:58;96034.57;;;22.54;54.24
52935;BME280;38802;50.198;19.796;2023-07-22T12:51:26;96031.05;;;22.53;54.21
52935;BME280;38802;50.198;19.796;2023-07-22T12:53:54;96028.29;;;22.61;54.66
52935;BME280;38802;50.198;19.796;2023-07-22T12:56:22;96029.08;;;22.73;54.66
52935;BME280;38802;50.198;19.796;2023-07-22T12:58:50;96028.48;;;22.78;54.83
52935;BME280;38802;50.198;19.796;2023-07-22T13:01:19;96031.13;;;22.75;54.86
52935;BME280;38802;50.198;19.796;2023-07-22T13:03:47;96026.98;;;22.67;53.86
52935;BME280;38802;50.198;19.796;2023-07-22T13:06:15;96031.52;;;22.61;53.89
52935;BME280;38802;50.198;19.796;2023-07-22T13:08:43;96030.08;;;22.58;53.67
52935;BME280;38802;50.198;19.796;2023-07-22T13:11:11;96032.48;;;22.47;53.62
52935;BME280;38802;50.198;19.796;2023-07-22T13:13:39;96026.52;;;22.41;53.88
52935;BME280;38802;50.198;19.796;2023-07-22T13:16:07;96031.02;;;22.36;53.80
52935;BME280;38802;50.198;19.796;2023-07-22T13:18:35;96028.98;;;22.28;53.68
52935;BME280;38802;50.198;19.796;2023-07-22T13:21:03;96031.92;;;22.23;53.97
52935;BME280;38802;50.198;19.796;2023-07-22T13:23:31;96036.05;;;22.20;54.15
52935;BME280;38802;50.198;19.796;2023-07-22T13:25:59;96031.30;;;22.18;53.77
52935;BME280;38802;50.198;19.796;2023-07-22T13:28:27;96033.83;;;22.13;53.72
52935;BME280;38802;50.198;19.796;2023-07-22T13:30:55;96034.05;;;22.09;53.64